Time;durP1;ratioP1;P1;durP2;ratioP2;P2;SDS_P1;SDS_P2;PMS_P1;PMS_P2;Temp;Humidity;BMP_temperature;BMP_pressure;BME280_temperature;BME280_humidity;BME280_pressure;Samples;Min_cycle;Max_cycle;Signal;HPM_P1;HPM_P2
2023/07/14 00:01:56;;;;;;;12.45;4.63;;;16.80;99.90;;;;;;4991630;28;20368;-69
2023/07/14 00:04:31;;;;;;;8.35;4.47;;;16.70;99.90;;;;;;4994614;28;20104;-69
2023/07/14 00:06:57;;;;;;;9.50;5.22;;;16.70;99.90;;;;;;4991170;28;20066;-69
2023/07/14 00:09:26;;;;;;;9.45;4.60;;;16.70;99.90;;;;;;4991490;28;20046;-69
2023/07/14 00:11:52;;;;;;;8.68;4.32;;;16.70;99.90;;;;;;4989684;28;20497;-69
2023/07/14 00:14:18;;;;;;;;;;;16.70;99.90;;;;;;4991682;28;20070;-69
2023/07/14 00:16:44;;;;;;;9.48;4.55;;;16.60;99.90;;;;;;4989402;28;19968;-69
2023/07/14 00:19:17;;;;;;;6.18;3.75;;;16.60;99.90;;;;;;4987982;28;20403;-69
2023/07/14 00:21:44;;;;;;;9.40;4.93;;;16.60;99.90;;;;;;4988245;28;20046;-69
2023/07/14 00:24:15;;;;;;;7.18;5.35;;;16.60;99.90;;;;;;4990558;28;20488;-69
2023/07/14 00:26:53;;;;;;;7.47;5.15;;;16.60;99.90;;;;;;4989559;28;20065;-69
2023/07/14 00:29:19;;;;;;;11.25;4.97;;;16.60;99.90;;;;;;4987644;28;20045;-69
2023/07/14 00:31:45;;;;;;;;;;;16.60;99.90;;;;;;4983055;28;20154;-69
2023/07/14 00:34:11;;;;;;;8.60;4.40;;;16.60;99.90;;;;;;4993154;28;20259;-69
2023/07/14 00:36:36;;;;;;;7.82;5.15;;;16.50;99.90;;;;;;4989342;28;20093;-69
2023/07/14 00:39:02;;;;;;;9.77;5.05;;;16.50;99.90;;;;;;4989426;28;20038;-69
2023/07/14 00:41:28;;;;;;;12.13;5.03;;;16.50;99.90;;;;;;4988383;28;20065;-69
2023/07/14 00:43:54;;;;;;;12.85;5.53;;;16.50;99.90;;;;;;4987276;28;20050;-69
2023/07/14 00:46:30;;;;;;;10.18;5.90;;;16.50;99.90;;;;;;4987650;28;20101;-69
2023/07/14 00:49:04;;;;;;;8.82;5.32;;;16.50;99.90;;;;;;4987920;28;20539;-69
2023/07/14 00:51:33;;;;;;;8.52;5.25;;;16.50;99.90;;;;;;4993806;28;20058;-69
2023/07/14 00:53:59;;;;;;;11.45;5.63;;;16.50;99.90;;;;;;4995435;28;20559;-69
2023/07/14 00:56:39;;;;;;;8.75;5.38;;;16.40;99.90;;;;;;4989064;28;20263;-69
2023/07/14 00:59:13;;;;;;;8.20;4.90;;;16.40;99.90;;;;;;4990576;28;20093;-69
2023/07/14 01:02:08;;;;;;;10.23;5.00;;;16.40;99.90;;;;;;4988621;28;20050;-68
2023/07/14 01:04:33;;;;;;;7.43;4.28;;;16.40;99.90;;;;;;4983282;28;20042;-69
2023/07/14 01:06:59;;;;;;;9.80;4.65;;;16.30;99.90;;;;;;4989781;28;20048;-69
2023/07/14 01:09:25;;;;;;;15.77;6.38;;;16.30;99.90;;;;;;4989670;28;20061;-69
2023/07/14 01:11:54;;;;;;;12.95;5.88;;;16.30;99.90;;;;;;4976267;28;20410;-70
2023/07/14 01:14:26;;;;;;;10.63;5.35;;;16.30;99.90;;;;;;4988534;28;20047;-69
2023/07/14 01:16:54;;;;;;;10.88;5.72;;;16.30;99.90;;;;;;4988124;28;20046;-69
2023/07/14 01:19:40;;;;;;;9.93;5.80;;;16.30;99.90;;;;;;4989533;28;20049;-69
2023/07/14 01:22:23;;;;;;;9.57;5.22;;;16.30;99.90;;;;;;4989785;28;20078;-69
2023/07/14 01:27:51;;;;;;;11.82;5.78;;;16.30;99.90;;;;;;4092619;26;20108;-80
2023/07/14 01:30:30;;;;;;;12.32;5.55;;;16.20;99.90;;;;;;4976622;28;20132;-82
2023/07/14 01:33:02;;;;;;;9.13;5.47;;;16.20;99.90;;;;;;4984773;28;20064;-81
2023/07/14 01:36:06;;;;;;;12.55;5.10;;;16.20;99.90;;;;;;5002328;28;20092;-81
2023/07/14 01:38:31;;;;;;;9.00;5.50;;;16.20;99.90;;;;;;5002016;28;20285;-81
2023/07/14 01:41:35;;;;;;;12.05;5.50;;;16.20;99.90;;;;;;4991565;28;20045;-81
2023/07/14 01:44:29;;;;;;;9.45;5.30;;;16.20;99.90;;;;;;4991575;28;20050;-83
2023/07/14 01:47:02;;;;;;;9.32;5.10;;;16.20;99.90;;;;;;4992027;28;20050;-82
2023/07/14 01:49:58;;;;;;;8.60;4.93;;;16.20;99.90;;;;;;4990517;28;20057;-82
2023/07/14 01:55:34;;;;;;;9.10;5.05;;;16.20;99.90;;;;;;4919495;29;20495;-82
2023/07/14 01:58:52;;;;;;;7.72;5.47;;;16.20;99.90;;;;;;4985055;28;20046;-82
2023/07/14 02:01:29;;;;;;;8.65;4.85;;;16.10;99.90;;;;;;4897839;29;20043;-81
2023/07/14 02:04:26;;;;;;;10.25;5.47;;;16.10;99.90;;;;;;4883549;29;20068;-81
2023/07/14 02:06:56;;;;;;;9.20;5.68;;;16.10;99.90;;;;;;4984642;28;20372;-80
2023/07/14 02:09:23;;;;;;;9.15;5.35;;;16.10;99.90;;;;;;4988338;28;20081;-79
2023/07/14 02:12:29;;;;;;;8.18;4.90;;;16.10;99.90;;;;;;4992063;28;20045;-80
2023/07/14 02:15:31;;;;;;;7.90;5.28;;;16.10;99.90;;;;;;4938806;28;20054;-81
2023/07/14 02:18:03;;;;;;;9.75;5.07;;;16.10;99.90;;;;;;4990425;28;20552;-79
2023/07/14 02:20:52;;;;;;;10.38;5.57;;;16.10;99.90;;;;;;4995053;28;20421;-83
2023/07/14 02:23:28;;;;;;;14.35;5.40;;;16.10;99.90;;;;;;4985005;28;20046;-81
2023/07/14 02:26:29;;;;;;;12.05;5.40;;;16.00;99.90;;;;;;4991910;28;20536;-81
2023/07/14 02:28:57;;;;;;;9.27;6.38;;;16.00;99.90;;;;;;4981625;28;20037;-81
2023/07/14 02:31:41;;;;;;;8.77;5.25;;;16.00;99.90;;;;;;4984382;28;20038;-81
2023/07/14 02:34:26;;;;;;;8.57;5.30;;;16.00;99.90;;;;;;4982428;28;20077;-81
2023/07/14 02:37:34;;;;;;;12.88;5.80;;;16.00;99.90;;;;;;4992807;28;20042;-81
2023/07/14 02:40:07;;;;;;;9.20;5.45;;;16.00;99.90;;;;;;4995208;28;20509;-82
2023/07/14 02:42:39;;;;;;;7.90;4.68;;;16.00;99.90;;;;;;4995558;28;20033;-81
2023/07/14 02:45:15;;;;;;;8.48;4.65;;;16.10;99.90;;;;;;4994711;28;20111;-81
2023/07/14 02:47:46;;;;;;;7.07;4.88;;;16.10;99.90;;;;;;4995295;28;20120;-81
2023/07/14 02:50:20;;;;;;;9.50;5.72;;;16.10;99.90;;;;;;4988109;28;20092;-81
2023/07/14 02:52:46;;;;;;;11.75;4.93;;;16.10;99.90;;;;;;4995097;28;20311;-81
2023/07/14 02:55:14;;;;;;;12.32;5.93;;;16.00;99.90;;;;;;4994327;28;20352;-82
2023/07/14 02:57:42;;;;;;;7.45;4.57;;;16.00;99.90;;;;;;4995104;28;20083;-82
2023/07/14 03:00:15;;;;;;;10.38;5.38;;;16.00;99.90;;;;;;4995429;28;20052;-81
2023/07/14 03:02:44;;;;;;;10.25;5.30;;;16.10;99.90;;;;;;4989022;28;20382;-81
2023/07/14 03:05:18;;;;;;;11.07;5.38;;;16.00;99.90;;;;;;4986820;28;20044;-79
2023/07/14 03:07:52;;;;;;;8.68;4.88;;;16.00;99.90;;;;;;4994853;28;20085;-81
2023/07/14 03:10:23;;;;;;;8.20;4.70;;;16.00;99.90;;;;;;4984434;28;20120;-81
2023/07/14 03:13:15;;;;;;;11.77;5.40;;;16.00;99.90;;;;;;4995009;28;20052;-82
2023/07/14 03:15:48;;;;;;;7.80;4.60;;;16.00;99.90;;;;;;4983748;28;20069;-82
2023/07/14 03:18:17;;;;;;;12.77;5.47;;;15.90;99.90;;;;;;4985822;28;20065;-80
2023/07/14 03:20:46;;;;;;;12.35;4.75;;;15.90;99.90;;;;;;4999044;28;20050;-80
2023/07/14 03:23:23;;;;;;;8.15;4.97;;;15.90;99.90;;;;;;4994131;28;20054;-81
2023/07/14 03:25:58;;;;;;;9.23;4.78;;;16.00;99.90;;;;;;4995008;28;20048;-81
2023/07/14 03:28:29;;;;;;;11.85;4.93;;;16.00;99.90;;;;;;4994028;28;20172;-79
2023/07/14 03:30:59;;;;;;;8.30;4.57;;;15.90;99.90;;;;;;4990277;28;20069;-81
2023/07/14 03:33:39;;;;;;;12.38;4.28;;;15.90;99.90;;;;;;4982643;28;20046;-81
2023/07/14 03:36:15;;;;;;;10.73;4.75;;;15.90;99.90;;;;;;4992561;28;20056;-82
2023/07/14 03:39:25;;;;;;;10.63;4.90;;;15.90;99.90;;;;;;4995487;28;20038;-81
2023/07/14 03:42:47;;;;;;;7.68;4.72;;;15.90;99.90;;;;;;4997951;28;20045;-82
2023/07/14 03:45:14;;;;;;;7.93;4.78;;;15.90;99.90;;;;;;4993220;28;20520;-82
2023/07/14 03:47:58;;;;;;;8.43;4.80;;;15.80;99.90;;;;;;4993341;28;20492;-81
2023/07/14 03:50:37;;;;;;;10.57;5.35;;;15.80;99.90;;;;;;4992458;28;20457;-80
2023/07/14 03:53:16;;;;;;;12.65;4.88;;;15.80;99.90;;;;;;4993603;28;20038;-81
2023/07/14 03:55:48;;;;;;;12.55;5.65;;;15.80;99.90;;;;;;4994034;28;20060;-81
2023/07/14 03:58:17;;;;;;;8.45;5.45;;;15.70;99.90;;;;;;4993457;28;20057;-79
2023/07/14 04:01:03;;;;;;;14.55;5.05;;;15.80;99.90;;;;;;5003964;28;20049;-81
2023/07/14 04:03:31;;;;;;;11.07;4.90;;;15.80;99.90;;;;;;5008410;28;20068;-83
2023/07/14 04:06:03;;;;;;;7.57;4.60;;;15.70;99.90;;;;;;5000121;28;20089;-79
2023/07/14 04:08:38;;;;;;;6.88;4.13;;;15.70;99.90;;;;;;4986953;28;20037;-81
2023/07/14 04:11:15;;;;;;;8.55;4.80;;;15.70;99.90;;;;;;4993839;28;20041;-81
2023/07/14 04:13:41;;;;;;;8.68;3.90;;;15.70;99.90;;;;;;4993744;28;20045;-83
2023/07/14 04:16:18;;;;;;;7.68;4.45;;;15.70;99.90;;;;;;4996884;28;20137;-82
2023/07/14 04:18:52;;;;;;;12.45;4.43;;;15.70;99.90;;;;;;4993681;28;20046;-82
2023/07/14 04:21:36;;;;;;;9.35;5.07;;;15.70;99.90;;;;;;4987347;28;20167;-82
2023/07/14 04:24:22;;;;;;;8.70;4.13;;;15.70;99.90;;;;;;4992417;28;20097;-81
2023/07/14 04:27:33;;;;;;;13.70;4.70;;;15.60;99.90;;;;;;5011615;28;20045;-81
2023/07/14 04:30:32;;;;;;;4.82;3.35;;;15.70;99.90;;;;;;4955729;28;20085;-81
2023/07/14 04:33:45;;;;;;;8.60;3.65;;;15.60;99.90;;;;;;4948580;28;20049;-82
2023/07/14 04:36:14;;;;;;;6.05;3.78;;;15.70;99.90;;;;;;4992946;28;20104;-81
2023/07/14 04:39:13;;;;;;;7.70;3.35;;;15.70;99.90;;;;;;5015346;28;20053;-81
2023/07/14 04:41:41;;;;;;;8.85;3.65;;;15.70;99.90;;;;;;4983634;28;20053;-81
2023/07/14 04:44:13;;;;;;;9.48;3.42;;;15.70;99.90;;;;;;4993598;28;20072;-81
2023/07/14 04:46:58;;;;;;;9.95;3.53;;;15.70;99.90;;;;;;4994559;28;20096;-81
2023/07/14 04:49:28;;;;;;;8.25;3.20;;;15.70;99.90;;;;;;4983285;28;20065;-81
2023/07/14 04:51:56;;;;;;;6.10;2.85;;;15.80;99.90;;;;;;4988988;28;20053;-79
2023/07/14 04:54:28;;;;;;;7.07;3.33;;;15.80;99.90;;;;;;4999160;28;20258;-81
2023/07/14 04:56:57;;;;;;;9.80;3.03;;;15.80;99.90;;;;;;4992603;28;20038;-81
2023/07/14 04:59:29;;;;;;;7.25;2.75;;;15.90;99.90;;;;;;4988734;28;20582;-81
2023/07/14 05:01:56;;;;;;;4.65;2.50;;;15.90;99.90;;;;;;4995612;28;20061;-81
2023/07/14 05:04:22;;;;;;;11.70;3.22;;;15.90;99.90;;;;;;4992153;28;20065;-80
2023/07/14 05:06:48;;;;;;;10.77;2.92;;;16.00;99.90;;;;;;4991302;28;20066;-81
2023/07/14 05:09:14;;;;;;;8.63;3.17;;;16.00;99.90;;;;;;4998415;28;20132;-81
2023/07/14 05:11:40;;;;;;;7.78;2.80;;;16.00;99.90;;;;;;4991997;28;20041;-82
2023/07/14 05:14:06;;;;;;;8.63;2.90;;;16.10;99.90;;;;;;4999647;28;20061;-82
2023/07/14 05:16:32;;;;;;;6.05;2.67;;;16.10;99.90;;;;;;4996392;28;20045;-82
2023/07/14 05:18:57;;;;;;;6.38;2.40;;;16.10;99.90;;;;;;4994945;28;20436;-80
2023/07/14 05:21:23;;;;;;;7.97;3.33;;;16.20;99.90;;;;;;4991600;28;20486;-81
2023/07/14 05:23:49;;;;;;;9.93;2.78;;;16.20;99.90;;;;;;4991215;28;20045;-80
2023/07/14 05:26:15;;;;;;;5.60;3.05;;;16.30;99.90;;;;;;4992593;28;20473;-81
2023/07/14 05:28:41;;;;;;;9.73;3.05;;;16.30;99.90;;;;;;4996624;28;20532;-81
2023/07/14 05:31:09;;;;;;;8.10;3.00;;;16.40;99.90;;;;;;5006745;28;20042;-81
2023/07/14 05:33:35;;;;;;;4.18;2.53;;;16.40;99.90;;;;;;4997009;28;20037;-81
2023/07/14 05:36:01;;;;;;;11.52;3.30;;;16.40;99.90;;;;;;4991888;28;20215;-80
2023/07/14 05:38:30;;;;;;;9.68;3.17;;;16.50;99.90;;;;;;4990681;28;20493;-80
2023/07/14 05:40:56;;;;;;;7.32;3.15;;;16.50;99.90;;;;;;4987636;28;20340;-80
2023/07/14 05:43:24;;;;;;;6.70;2.65;;;16.50;99.90;;;;;;5007804;28;20045;-80
2023/07/14 05:45:50;;;;;;;8.63;2.53;;;16.60;99.90;;;;;;4991839;28;20060;-81
2023/07/14 05:48:17;;;;;;;5.43;2.50;;;16.60;99.90;;;;;;4994059;28;20072;-81
2023/07/14 05:50:45;;;;;;;5.88;2.72;;;16.60;99.90;;;;;;4989097;28;20068;-80
2023/07/14 05:53:11;;;;;;;6.45;2.42;;;16.70;99.90;;;;;;5007873;28;20037;-81
2023/07/14 05:55:36;;;;;;;6.28;3.17;;;16.70;99.90;;;;;;4991213;28;20049;-80
2023/07/14 05:58:03;;;;;;;5.20;2.50;;;16.80;99.90;;;;;;4995584;28;20125;-80
2023/07/14 06:00:29;;;;;;;6.63;2.42;;;16.90;99.90;;;;;;4994462;28;20038;-82
2023/07/14 06:02:54;;;;;;;8.93;2.58;;;16.90;99.90;;;;;;5003035;28;20532;-80
2023/07/14 06:05:20;;;;;;;5.18;2.58;;;17.00;99.90;;;;;;4991151;28;20037;-83
2023/07/14 06:07:49;;;;;;;4.95;2.42;;;17.00;99.90;;;;;;4991667;28;20038;-80
2023/07/14 06:10:15;;;;;;;5.63;2.60;;;17.00;99.90;;;;;;4996410;28;20040;-80
2023/07/14 06:12:41;;;;;;;7.75;2.50;;;17.10;99.90;;;;;;5007613;28;20049;-80
2023/07/14 06:15:07;;;;;;;5.03;2.40;;;17.20;99.90;;;;;;4983997;28;20042;-81
2023/07/14 06:17:33;;;;;;;6.72;3.33;;;17.20;99.90;;;;;;4991129;28;20041;-81
2023/07/14 06:19:59;;;;;;;9.85;3.40;;;17.30;99.90;;;;;;4990973;28;20034;-82
2023/07/14 06:22:25;;;;;;;7.63;2.47;;;17.30;99.90;;;;;;5002061;28;20057;-78
2023/07/14 06:24:51;;;;;;;7.78;2.75;;;17.30;99.90;;;;;;4990658;28;20030;-81
2023/07/14 06:27:17;;;;;;;4.28;2.42;;;17.40;99.90;;;;;;4991571;28;20657;-80
2023/07/14 06:29:43;;;;;;;4.85;2.50;;;17.40;99.90;;;;;;4991925;28;20045;-81
2023/07/14 06:32:09;;;;;;;6.35;3.28;;;17.50;99.90;;;;;;4989345;28;20517;-80
2023/07/14 06:34:37;;;;;;;5.30;2.08;;;17.60;99.90;;;;;;4990692;28;20075;-80
2023/07/14 06:37:03;;;;;;;3.83;2.15;;;17.60;99.90;;;;;;4996810;28;20441;-80
2023/07/14 06:39:30;;;;;;;6.18;2.65;;;17.60;99.90;;;;;;5001736;28;20141;-80
2023/07/14 06:41:56;;;;;;;6.72;2.47;;;17.70;99.90;;;;;;4987589;28;20516;-80
2023/07/14 06:44:22;;;;;;;8.02;2.67;;;17.80;99.90;;;;;;4996229;28;20046;-80
2023/07/14 06:46:48;;;;;;;8.15;3.28;;;17.80;99.90;;;;;;4994446;28;20121;-80
2023/07/14 06:49:13;;;;;;;5.88;2.95;;;17.90;99.90;;;;;;4989759;28;20405;-81
2023/07/14 06:51:39;;;;;;;5.80;2.83;;;17.90;99.90;;;;;;5007180;28;20417;-80
2023/07/14 06:54:05;;;;;;;10.23;3.53;;;18.00;99.90;;;;;;4990887;28;20108;-80
2023/07/14 06:56:31;;;;;;;9.13;3.30;;;18.00;99.90;;;;;;4989239;28;20049;-80
2023/07/14 06:58:56;;;;;;;7.78;3.05;;;18.00;99.90;;;;;;4999586;28;20041;-80
2023/07/14 07:01:22;;;;;;;10.25;2.92;;;18.00;99.90;;;;;;4990430;28;20563;-80
2023/07/14 07:03:48;;;;;;;4.82;2.80;;;18.10;99.90;;;;;;4987496;28;20617;-80
2023/07/14 07:06:17;;;;;;;7.38;3.50;;;18.20;99.90;;;;;;4990413;28;20042;-80
2023/07/14 07:08:43;;;;;;;10.43;3.85;;;18.20;99.90;;;;;;4990103;28;20045;-81
2023/07/14 07:11:13;;;;;;;7.93;3.33;;;18.20;99.90;;;;;;4995848;28;20386;-80
2023/07/14 07:13:39;;;;;;;7.65;3.30;;;18.20;99.90;;;;;;4986243;28;20497;-81
2023/07/14 07:16:06;;;;;;;10.15;3.80;;;18.30;99.90;;;;;;4988582;28;20476;-78
2023/07/14 07:18:31;;;;;;;5.82;2.83;;;18.30;99.90;;;;;;4989229;28;20042;-80
2023/07/14 07:20:57;;;;;;;12.15;3.30;;;18.30;99.90;;;;;;4990550;28;20041;-81
2023/07/14 07:23:23;;;;;;;13.75;3.70;;;18.40;99.90;;;;;;4993796;28;20426;-80
2023/07/14 07:25:51;;;;;;;10.07;3.67;;;18.40;99.90;;;;;;4991522;28;20053;-80
2023/07/14 07:28:18;;;;;;;14.38;4.18;;;18.50;99.90;;;;;;5011983;28;20132;-80
2023/07/14 07:30:49;;;;;;;8.00;3.78;;;18.50;99.90;;;;;;4996620;28;20502;-82
2023/07/14 07:33:16;;;;;;;9.48;3.05;;;18.50;99.90;;;;;;4997000;28;20041;-81
2023/07/14 07:35:42;;;;;;;10.63;2.90;;;18.50;99.90;;;;;;4993438;28;20060;-81
2023/07/14 07:38:10;;;;;;;5.70;3.08;;;18.60;99.90;;;;;;4994657;28;20038;-81
2023/07/14 07:40:37;;;;;;;6.95;3.20;;;18.60;99.90;;;;;;4992682;28;20475;-81
2023/07/14 07:43:03;;;;;;;8.80;2.88;;;18.60;99.90;;;;;;4997466;28;20058;-81
2023/07/14 07:45:29;;;;;;;5.20;2.50;;;18.70;99.90;;;;;;4994297;28;20421;-82
2023/07/14 07:47:55;;;;;;;6.43;2.83;;;18.70;99.90;;;;;;4998478;28;20038;-81
2023/07/14 07:50:21;;;;;;;5.68;2.55;;;18.80;99.90;;;;;;4994154;28;20065;-81
2023/07/14 07:52:46;;;;;;;8.50;3.00;;;18.80;99.90;;;;;;4988759;28;20603;-81
2023/07/14 07:55:12;;;;;;;5.72;2.63;;;18.80;99.90;;;;;;4995813;28;20042;-80
2023/07/14 07:57:38;;;;;;;5.75;2.45;;;18.90;99.90;;;;;;4999842;28;20493;-81
2023/07/14 08:00:06;;;;;;;6.30;2.67;;;18.90;99.90;;;;;;4991951;28;20042;-80
2023/07/14 08:02:35;;;;;;;5.45;2.60;;;19.00;99.90;;;;;;4997260;28;20046;-80
2023/07/14 08:05:02;;;;;;;6.80;2.28;;;19.00;99.90;;;;;;4995622;28;20034;-82
2023/07/14 08:07:27;;;;;;;8.43;2.22;;;19.10;99.90;;;;;;4996578;28;20394;-81
2023/07/14 08:09:53;;;;;;;5.53;2.53;;;19.10;99.90;;;;;;4991136;28;20036;-81
2023/07/14 08:12:19;;;;;;;5.72;2.42;;;19.20;99.90;;;;;;4995866;28;20124;-80
2023/07/14 08:14:56;;;;;;;5.05;2.40;;;19.20;99.90;;;;;;4994444;28;20046;-82
2023/07/14 08:17:27;;;;;;;3.20;1.60;;;19.30;99.90;;;;;;4995508;28;20052;-80
2023/07/14 08:19:54;;;;;;;5.22;1.88;;;19.40;99.90;;;;;;4994937;28;20052;-81
2023/07/14 08:22:20;;;;;;;;;;;19.50;99.90;;;;;;4999367;28;20038;-80
2023/07/14 08:24:46;;;;;;;4.47;2.20;;;19.50;99.90;;;;;;4994866;28;19929;-81
2023/07/14 08:27:14;;;;;;;4.50;1.58;;;19.50;99.90;;;;;;4994411;28;20083;-82
2023/07/14 08:29:40;;;;;;;4.28;2.00;;;19.60;99.90;;;;;;4998755;28;20034;-84
2023/07/14 08:32:06;;;;;;;;;;;19.60;99.90;;;;;;5000217;28;20095;-83
2023/07/14 08:34:32;;;;;;;3.20;1.55;;;19.60;99.90;;;;;;4994238;28;19921;-83
2023/07/14 08:36:58;;;;;;;4.45;1.75;;;19.70;99.90;;;;;;4994002;28;20034;-82
2023/07/14 08:39:24;;;;;;;5.20;1.88;;;19.80;99.90;;;;;;4995246;28;20064;-82
2023/07/14 08:41:53;;;;;;;6.10;1.77;;;19.80;99.90;;;;;;5000115;28;20047;-81
2023/07/14 08:44:34;;;;;;;5.40;1.80;;;19.80;99.90;;;;;;4995165;28;20050;-81
2023/07/14 08:47:03;;;;;;;2.78;1.73;;;19.90;99.90;;;;;;4997906;28;20049;-82
2023/07/14 08:49:36;;;;;;;5.53;1.83;;;19.90;99.90;;;;;;4991792;28;20125;-81
2023/07/14 08:52:05;;;;;;;4.55;1.60;;;19.90;99.90;;;;;;4995289;28;20096;-81
2023/07/14 08:55:01;;;;;;;5.32;1.45;;;20.00;99.90;;;;;;4995241;28;20046;-83
2023/07/14 08:57:28;;;;;;;3.67;1.60;;;20.00;99.90;;;;;;4987941;28;20034;-82
2023/07/14 09:00:03;;;;;;;5.13;1.77;;;20.10;99.90;;;;;;4994992;28;20033;-81
2023/07/14 09:03:03;;;;;;;6.07;1.80;;;20.20;99.90;;;;;;4988435;28;20052;-81
2023/07/14 09:05:31;;;;;;;5.53;1.80;;;20.20;99.90;;;;;;5009812;28;20033;-81
2023/07/14 09:07:56;;;;;;;6.55;1.85;;;20.20;99.90;;;;;;4994922;28;20037;-81
2023/07/14 09:10:37;;;;;;;4.05;1.75;;;20.20;99.90;;;;;;4994462;28;20666;-81
2023/07/14 09:13:21;;;;;;;4.32;1.63;;;20.20;99.90;;;;;;4994772;28;20045;-82
2023/07/14 09:15:49;;;;;;;4.22;1.98;;;20.30;99.90;;;;;;4987701;28;20083;-81
2023/07/14 09:18:23;;;;;;;4.45;1.83;;;20.40;99.90;;;;;;4995730;28;20130;-80
2023/07/14 09:21:05;;;;;;;6.45;1.80;;;20.50;99.90;;;;;;4989810;28;20042;-82
2023/07/14 09:23:32;;;;;;;5.55;1.83;;;20.60;99.90;;;;;;5006259;28;20042;-81
2023/07/14 09:26:13;;;;;;;4.03;1.50;;;20.70;99.90;;;;;;4990731;28;20045;-81
2023/07/14 09:28:50;;;;;;;6.50;1.80;;;20.80;99.90;;;;;;4994218;28;20048;-81
2023/07/14 09:31:37;;;;;;;6.88;2.08;;;20.90;99.90;;;;;;4989382;28;20405;-83
2023/07/14 09:34:34;;;;;;;4.00;1.80;;;20.90;99.90;;;;;;4991248;28;20104;-81
2023/07/14 09:37:01;;;;;;;4.32;1.60;;;20.80;99.90;;;;;;4982847;28;20051;-81
2023/07/14 09:39:37;;;;;;;3.70;1.90;;;20.80;99.90;;;;;;4994427;28;20050;-82
2023/07/14 09:42:10;;;;;;;4.85;1.70;;;20.80;99.90;;;;;;4995905;28;20038;-79
2023/07/14 09:44:36;;;;;;;4.00;1.75;;;20.70;99.90;;;;;;4996938;28;20038;-81
2023/07/14 09:47:02;;;;;;;6.45;2.35;;;20.60;99.90;;;;;;4993797;28;20167;-81
2023/07/14 09:49:40;;;;;;;6.65;2.28;;;20.60;99.90;;;;;;4996895;28;20041;-79
2023/07/14 09:52:12;;;;;;;4.95;2.03;;;20.60;99.90;;;;;;4991237;28;20029;-80
2023/07/14 09:54:48;;;;;;;6.95;2.00;;;20.50;99.90;;;;;;4996891;28;20543;-82
2023/07/14 09:57:14;;;;;;;6.82;2.40;;;20.60;99.90;;;;;;4993191;28;20057;-81
2023/07/14 09:59:50;;;;;;;7.20;2.30;;;20.70;99.90;;;;;;4994588;28;20156;-84
2023/07/14 10:02:17;;;;;;;8.18;2.30;;;20.80;99.90;;;;;;4993301;28;20410;-83
2023/07/14 10:04:48;;;;;;;6.97;2.20;;;20.90;99.90;;;;;;4973257;28;20056;-82
2023/07/14 10:07:26;;;;;;;6.63;1.70;;;20.90;99.90;;;;;;4997107;28;20528;-81
2023/07/14 10:10:08;;;;;;;6.30;2.17;;;20.90;99.90;;;;;;4991434;28;20430;-83
2023/07/14 10:12:46;;;;;;;5.32;2.28;;;21.00;99.90;;;;;;4989803;28;20297;-83
2023/07/14 10:15:32;;;;;;;5.00;1.92;;;21.20;99.90;;;;;;4994117;28;20046;-82
2023/07/14 10:18:05;;;;;;;7.60;2.65;;;21.40;99.90;;;;;;4992436;28;20061;-82
2023/07/14 10:20:33;;;;;;;6.43;2.60;;;21.30;99.90;;;;;;4993188;28;20048;-82
2023/07/14 10:22:59;;;;;;;6.43;2.67;;;21.30;99.90;;;;;;4992667;28;20655;-81
2023/07/14 10:25:28;;;;;;;5.97;2.50;;;21.20;99.90;;;;;;4990893;28;20405;-82
2023/07/14 10:28:05;;;;;;;3.65;1.73;;;21.10;99.90;;;;;;4993410;28;20057;-81
2023/07/14 10:30:55;;;;;;;6.07;2.50;;;21.00;99.90;;;;;;4992012;28;20034;-83
2023/07/14 10:33:38;;;;;;;6.05;2.40;;;21.00;99.90;;;;;;4990224;28;20125;-80
2023/07/14 10:36:23;;;;;;;4.07;2.03;;;21.00;99.90;;;;;;4993783;28;20037;-81
2023/07/14 10:39:06;;;;;;;7.18;2.10;;;21.10;99.90;;;;;;5003674;28;20045;-79
2023/07/14 10:41:35;;;;;;;4.35;2.25;;;21.30;99.90;;;;;;4992121;28;20046;-80
2023/07/14 10:44:05;;;;;;;4.72;1.92;;;21.30;99.90;;;;;;4994670;28;20037;-81
2023/07/14 10:46:43;;;;;;;4.20;1.80;;;21.30;99.90;;;;;;4993285;28;20053;-82
2023/07/14 10:49:27;;;;;;;4.22;2.03;;;21.30;99.90;;;;;;4994160;28;20030;-82
2023/07/14 10:51:57;;;;;;;;;;;21.30;99.90;;;;;;4990589;28;20044;-82
2023/07/14 10:54:43;;;;;;;4.72;1.83;;;21.30;99.90;;;;;;5016275;28;19960;-82
2023/07/14 10:57:39;;;;;;;7.07;2.33;;;21.20;99.90;;;;;;4999300;28;20217;-82
2023/07/14 11:00:40;;;;;;;3.13;1.60;;;21.20;99.90;;;;;;4994353;28;20044;-81
2023/07/14 11:03:27;;;;;;;5.68;1.98;;;21.20;99.90;;;;;;4998226;28;20508;-82
2023/07/14 11:06:23;;;;;;;6.10;2.25;;;21.20;99.90;;;;;;4993954;28;20042;-83
2023/07/14 11:08:54;;;;;;;4.25;1.88;;;21.30;99.90;;;;;;4989746;28;20046;-82
2023/07/14 11:11:39;;;;;;;5.25;2.00;;;21.40;99.90;;;;;;4996601;28;20109;-81
2023/07/14 11:14:23;;;;;;;8.52;2.38;;;21.50;99.90;;;;;;4993376;28;20041;-81
2023/07/14 11:17:12;;;;;;;4.82;1.90;;;21.70;99.90;;;;;;5010722;28;20049;-81
2023/07/14 11:20:12;;;;;;;3.60;2.13;;;21.90;99.90;;;;;;4994802;28;20041;-81
2023/07/14 11:22:59;;;;;;;4.68;2.53;;;22.00;99.90;;;;;;4992601;28;20038;-83
2023/07/14 11:25:44;;;;;;;5.10;2.40;;;22.10;99.90;;;;;;4995507;28;20448;-80
2023/07/14 11:28:28;;;;;;;9.68;2.72;;;22.20;99.90;;;;;;4995465;28;20125;-81
2023/07/14 11:30:58;;;;;;;7.93;3.00;;;22.30;99.90;;;;;;4995856;28;20169;-81
2023/07/14 11:33:45;;;;;;;4.80;2.10;;;22.50;99.90;;;;;;5014810;28;20041;-81
2023/07/14 11:36:39;;;;;;;3.67;2.38;;;22.50;99.90;;;;;;4995916;28;20065;-84
2023/07/14 11:39:35;;;;;;;4.80;2.00;;;22.70;99.90;;;;;;4966387;28;20111;-80
2023/07/14 11:42:01;;;;;;;6.47;2.90;;;22.80;99.90;;;;;;4989184;28;20764;-82
2023/07/14 11:44:28;;;;;;;5.03;2.63;;;22.80;99.90;;;;;;4995669;28;20439;-82
2023/07/14 11:46:58;;;;;;;6.53;2.88;;;22.70;99.90;;;;;;4999215;28;20042;-80
2023/07/14 11:49:35;;;;;;;5.38;2.38;;;22.60;99.90;;;;;;4993156;28;20048;-81
2023/07/14 11:52:30;;;;;;;;;;;22.50;99.90;;;;;;4993283;28;20485;-81
2023/07/14 11:55:01;;;;;;;4.47;1.90;;;22.60;99.90;;;;;;4992581;28;19964;-84
2023/07/14 11:57:30;;;;;;;5.13;2.35;;;22.60;99.90;;;;;;5009624;28;20050;-83
2023/07/14 11:59:56;;;;;;;5.22;2.45;;;22.60;99.90;;;;;;4996387;28;20072;-83
2023/07/14 12:02:29;;;;;;;;;;;22.50;99.90;;;;;;4997632;28;20045;-80
2023/07/14 12:05:22;;;;;;;6.28;2.70;;;22.50;99.90;;;;;;5000703;28;19978;-80
2023/07/14 12:08:07;;;;;;;5.97;3.00;;;22.40;99.90;;;;;;4997017;28;20449;-81
2023/07/14 12:10:39;;;;;;;8.55;3.55;;;22.30;99.90;;;;;;4995019;28;20053;-82
2023/07/14 12:13:22;;;;;;;5.25;2.88;;;22.20;99.90;;;;;;4995109;28;20034;-82
2023/07/14 12:15:54;;;;;;;7.20;3.15;;;22.20;99.90;;;;;;4994613;28;20040;-81
2023/07/14 12:18:36;;;;;;;6.00;2.67;;;22.30;99.90;;;;;;4993135;28;20030;-81
2023/07/14 12:21:14;;;;;;;8.68;3.22;;;22.30;99.90;;;;;;4993894;28;20125;-81
2023/07/14 12:23:42;;;;;;;4.13;2.20;;;22.40;99.90;;;;;;4991962;28;20042;-81
2023/07/14 12:26:27;;;;;;;7.25;2.63;;;22.50;99.90;;;;;;4996190;28;20034;-82
2023/07/14 12:28:53;;;;;;;5.40;2.75;;;22.60;99.90;;;;;;5006122;28;20088;-81
2023/07/14 12:31:22;;;;;;;6.10;3.13;;;22.60;99.90;;;;;;4993329;28;20541;-81
2023/07/14 12:33:48;;;;;;;4.78;2.53;;;22.50;99.90;;;;;;4995306;28;20041;-81
2023/07/14 12:36:18;;;;;;;;;;;22.50;99.90;;;;;;4993964;28;20126;-81
2023/07/14 12:38:49;;;;;;;6.90;3.08;;;22.50;99.90;;;;;;4995603;28;19917;-86
2023/07/14 12:41:19;;;;;;;4.85;2.50;;;22.50;99.90;;;;;;4996130;28;20037;-81
2023/07/14 12:43:48;;;;;;;9.52;2.55;;;22.60;99.90;;;;;;4996056;28;20046;-81
2023/07/14 12:46:27;;;;;;;7.28;3.10;;;22.60;99.90;;;;;;4994764;28;20034;-79
2023/07/14 12:49:24;;;;;;;5.30;2.70;;;22.60;99.90;;;;;;4983834;28;20058;-81
2023/07/14 12:51:50;;;;;;;9.60;2.97;;;22.50;99.90;;;;;;4994978;28;20080;-80
2023/07/14 12:54:27;;;;;;;7.38;2.80;;;22.40;99.90;;;;;;4994751;28;20048;-83
2023/07/14 12:56:55;;;;;;;9.85;3.33;;;22.40;99.90;;;;;;4993675;28;20083;-81
2023/07/14 12:59:22;;;;;;;5.68;3.22;;;22.40;99.90;;;;;;4992224;28;20656;-80
2023/07/14 13:01:50;;;;;;;7.32;3.13;;;22.30;99.90;;;;;;4995805;28;20058;-81
2023/07/14 13:04:17;;;;;;;10.27;3.67;;;22.30;99.90;;;;;;4993890;28;20037;-81
2023/07/14 13:06:45;;;;;;;7.07;3.22;;;22.30;99.90;;;;;;4995716;28;20124;-83
2023/07/14 13:09:20;;;;;;;8.25;3.03;;;22.20;99.90;;;;;;4994124;28;20501;-81
2023/07/14 13:11:48;;;;;;;7.85;3.55;;;22.10;99.90;;;;;;4994722;28;20038;-80
2023/07/14 13:14:23;;;;;;;7.43;3.40;;;22.10;99.90;;;;;;5013008;28;20560;-82
2023/07/14 13:16:51;;;;;;;8.40;2.85;;;21.90;99.90;;;;;;4996137;28;20046;-81
2023/07/14 13:19:46;;;;;;;6.20;3.05;;;21.80;99.90;;;;;;4990592;28;20073;-81
2023/07/14 13:22:31;;;;;;;7.10;2.88;;;21.80;99.90;;;;;;4992758;28;20164;-80
2023/07/14 13:25:06;;;;;;;7.15;3.15;;;21.80;99.90;;;;;;4990671;28;20034;-81
2023/07/14 13:27:39;;;;;;;7.88;3.47;;;21.80;99.90;;;;;;4991737;28;20042;-83
2023/07/14 13:30:36;;;;;;;6.35;3.35;;;21.80;99.90;;;;;;5020479;22;20045;-82